Time;durP1;ratioP1;P1;durP2;ratioP2;P2;SDS_P1;SDS_P2;PMS_P1;PMS_P2;Temp;Humidity;BMP_temperature;BMP_pressure;BME280_temperature;BME280_humidity;BME280_pressure;Samples;Min_cycle;Max_cycle;Signal;HPM_P1;HPM_P2
2022/05/27 00:01:40;;;;;;;4.23;3.43;;;14.80;99.90;;;;;;5017641;28;20472;-58
2022/05/27 00:04:07;;;;;;;6.90;4.10;;;14.80;99.90;;;;;;5016983;28;20460;-62
2022/05/27 00:06:34;;;;;;;4.77;3.90;;;14.70;99.90;;;;;;5016979;28;20439;-62
2022/05/27 00:09:02;;;;;;;5.67;3.73;;;14.70;99.90;;;;;;5016711;28;20460;-61
2022/05/27 00:11:29;;;;;;;5.23;4.10;;;14.70;99.90;;;;;;5017386;28;20518;-62
2022/05/27 00:14:00;;;;;;;5.33;4.47;;;14.70;99.90;;;;;;5016112;28;20442;-62
2022/05/27 00:16:28;;;;;;;4.23;3.80;;;14.70;99.90;;;;;;5017186;28;20471;-62
2022/05/27 00:18:58;;;;;;;6.07;4.53;;;14.60;99.90;;;;;;5016376;28;20586;-62
2022/05/27 00:21:25;;;;;;;3.87;3.47;;;14.60;99.90;;;;;;5017014;28;20501;-61
2022/05/27 00:23:59;;;;;;;6.27;3.80;;;14.60;99.90;;;;;;5016454;28;20924;-61
2022/05/27 00:26:29;;;;;;;4.80;3.50;;;14.60;99.90;;;;;;5017248;28;20498;-61
2022/05/27 00:28:56;;;;;;;7.90;3.67;;;14.50;1.00;;;;;;5016708;28;20518;-62
2022/05/27 00:31:26;;;;;;;4.77;3.60;;;14.50;1.00;;;;;;5018199;28;20973;-62
2022/05/27 00:33:59;;;;;;;4.50;3.97;;;14.50;1.00;;;;;;5020697;28;20464;-62
2022/05/27 00:36:26;;;;;;;5.87;3.67;;;14.50;1.00;;;;;;5020793;28;20526;-62
2022/05/27 00:38:54;;;;;;;4.87;3.90;;;14.50;1.00;;;;;;5020143;28;20488;-63
2022/05/27 00:41:21;;;;;;;6.33;4.40;;;14.50;1.00;;;;;;5021143;28;20554;-62
2022/05/27 00:43:48;;;;;;;5.77;4.23;;;14.50;1.00;;;;;;5020142;28;20782;-63
2022/05/27 00:46:19;;;;;;;4.77;4.27;;;14.50;1.00;;;;;;5019832;28;20822;-62
2022/05/27 00:48:49;;;;;;;5.30;4.47;;;14.50;1.00;;;;;;5020196;28;20521;-62
2022/05/27 00:51:21;;;;;;;4.43;4.03;;;14.50;1.00;;;;;;5019486;28;20467;-62
2022/05/27 00:53:55;;;;;;;9.43;4.87;;;14.50;1.00;;;;;;5020536;28;20534;-61
2022/05/27 00:56:24;;;;;;;6.20;4.27;;;14.40;1.00;;;;;;5019834;28;20826;-62
2022/05/27 00:58:55;;;;;;;4.30;3.97;;;14.40;1.00;;;;;;5020317;28;20470;-61
2022/05/27 01:01:23;;;;;;;6.10;4.57;;;14.40;1.00;;;;;;5020015;28;20442;-62
2022/05/27 01:03:50;;;;;;;5.30;4.10;;;14.40;1.00;;;;;;5020578;28;20468;-62
2022/05/27 01:06:19;;;;;;;5.13;4.63;;;14.40;1.00;;;;;;5019710;28;20442;-63
2022/05/27 01:08:46;;;;;;;5.93;5.10;;;14.40;1.00;;;;;;5020149;28;20460;-61
2022/05/27 01:11:24;;;;;;;7.90;5.63;;;14.30;1.00;;;;;;5020193;28;20468;-61
2022/05/27 01:14:07;;;;;;;7.60;5.07;;;14.10;1.00;;;;;;5020215;28;20442;-61
2022/05/27 01:16:42;;;;;;;7.60;4.83;;;14.10;1.00;;;;;;5019213;28;20495;-62
2022/05/27 01:22:40;;;;;;;10.87;4.60;;;13.80;1.00;;;;;;5019371;28;20451;-61
2022/05/27 01:25:41;;;;;;;9.57;4.90;;;13.80;22.10;;;;;;5020339;28;20522;-62
2022/05/27 01:28:26;;;;;;;7.50;5.17;;;13.70;99.90;;;;;;5019505;28;20489;-62
2022/05/27 01:31:01;;;;;;;5.40;4.70;;;13.70;99.90;;;;;;5019661;28;20435;-62
2022/05/27 01:33:49;;;;;;;5.60;4.80;;;13.70;99.90;;;;;;5020386;28;20554;-58
2022/05/27 01:36:27;;;;;;;5.50;4.80;;;13.70;72.00;;;;;;5019861;28;20456;-60
2022/05/27 01:39:05;;;;;;;7.07;4.63;;;13.60;99.90;;;;;;5018864;28;20517;-59
2022/05/27 01:41:43;;;;;;;7.27;5.27;;;13.70;99.90;;;;;;5019273;28;20445;-59
2022/05/27 01:44:15;;;;;;;6.47;4.80;;;13.70;99.90;;;;;;5019869;28;20936;-59
2022/05/27 01:46:46;;;;;;;5.33;4.50;;;13.70;61.80;;;;;;5019504;28;20468;-59
2022/05/27 01:49:26;;;;;;;7.20;4.87;;;13.70;6.10;;;;;;5019088;28;20464;-59
2022/05/27 01:51:59;;;;;;;5.67;4.57;;;13.70;3.80;;;;;;5019625;28;20464;-60
2022/05/27 01:54:31;;;;;;;5.30;4.57;;;13.70;31.70;;;;;;5019269;28;20519;-59
2022/05/27 01:57:04;;;;;;;8.27;4.43;;;13.70;1.00;;;;;;5019710;28;20543;-60
2022/05/27 01:59:39;;;;;;;4.67;4.27;;;13.70;1.00;;;;;;5018610;28;20488;-60
2022/05/27 02:02:11;;;;;;;5.40;4.90;;;13.70;1.00;;;;;;5019252;28;20435;-58
2022/05/27 02:04:42;;;;;;;4.50;4.10;;;13.70;1.00;;;;;;5019091;28;20468;-60
2022/05/27 02:07:14;;;;;;;7.47;5.10;;;13.70;1.00;;;;;;5019366;28;20442;-60
2022/05/27 02:09:45;;;;;;;7.67;5.30;;;13.70;1.00;;;;;;5018825;28;20768;-60
2022/05/27 02:12:26;;;;;;;8.37;4.80;;;13.70;1.00;;;;;;5019138;28;20438;-60
2022/05/27 02:14:57;;;;;;;10.13;4.90;;;13.70;1.00;;;;;;5018909;28;20536;-60
2022/05/27 02:17:29;;;;;;;7.53;4.30;;;13.70;1.00;;;;;;5019370;28;20785;-60
2022/05/27 02:20:01;;;;;;;5.47;4.40;;;13.80;1.00;;;;;;5018258;28;20828;-58
2022/05/27 02:22:35;;;;;;;6.03;5.40;;;13.70;1.00;;;;;;5018770;28;20975;-59
2022/05/27 02:25:08;;;;;;;5.33;4.50;;;13.70;22.40;;;;;;5018537;28;20538;-58
2022/05/27 02:27:43;;;;;;;7.17;5.07;;;13.60;66.30;;;;;;5018889;28;20843;-58
2022/05/27 02:30:13;;;;;;;8.83;4.80;;;13.60;99.90;;;;;;5018333;28;20433;-57
2022/05/27 02:32:46;;;;;;;5.63;5.10;;;13.60;99.90;;;;;;5018676;28;20918;-58
2022/05/27 02:35:17;;;;;;;5.83;5.30;;;13.50;99.90;;;;;;5017957;28;20530;-58
2022/05/27 02:37:48;;;;;;;10.67;5.30;;;13.50;99.90;;;;;;5019116;28;20534;-57
2022/05/27 02:40:18;;;;;;;6.50;5.30;;;13.50;1.00;;;;;;5017778;28;20492;-59
2022/05/27 02:43:08;;;;;;;7.77;6.10;;;13.50;1.00;;;;;;5018427;28;20464;-58
2022/05/27 02:45:42;;;;;;;10.23;6.33;;;13.40;99.90;;;;;;5017850;28;20460;-59
2022/05/27 02:48:19;;;;;;;10.33;5.20;;;13.40;99.90;;;;;;5018165;28;20463;-59
2022/05/27 02:50:53;;;;;;;6.90;5.10;;;13.30;9.20;;;;;;5017810;28;20459;-60
2022/05/27 02:53:27;;;;;;;8.33;5.60;;;13.30;1.00;;;;;;5018654;28;20471;-59
2022/05/27 02:56:08;;;;;;;8.63;4.87;;;13.20;99.90;;;;;;5017850;28;20464;-59
2022/05/27 02:58:37;;;;;;;8.93;5.90;;;13.20;92.70;;;;;;5018627;28;20738;-59
2022/05/27 03:01:04;;;;;;;9.20;6.20;;;13.20;99.90;;;;;;5018416;28;20468;-60
2022/05/27 03:03:33;;;;;;;13.13;6.57;;;13.10;99.90;;;;;;5018558;28;20468;-60
2022/05/27 03:06:25;;;;;;;10.37;6.60;;;13.10;99.90;;;;;;5017690;28;20795;-57
2022/05/27 03:09:02;;;;;;;7.20;6.13;;;13.10;99.90;;;;;;5018383;28;20526;-59
2022/05/27 03:11:44;;;;;;;8.03;7.07;;;13.00;1.00;;;;;;5017516;28;20438;-60
2022/05/27 03:14:25;;;;;;;8.43;7.10;;;13.10;62.90;;;;;;5017706;28;20518;-60
2022/05/27 03:17:04;;;;;;;10.97;6.40;;;13.00;99.90;;;;;;5016645;28;20518;-60
2022/05/27 03:19:50;;;;;;;15.83;9.00;;;13.00;99.90;;;;;;5017846;28;20495;-60
2022/05/27 03:22:29;;;;;;;7.97;7.03;;;13.00;99.90;;;;;;4998054;28;20519;-58
2022/05/27 03:25:12;;;;;;;12.07;7.93;;;13.00;99.90;;;;;;4998387;28;20788;-60
2022/05/27 03:27:46;;;;;;;12.60;9.00;;;13.00;99.90;;;;;;5014712;28;20549;-62
2022/05/27 03:30:18;;;;;;;12.33;8.63;;;12.90;99.90;;;;;;5017472;28;20456;-64
2022/05/27 03:32:55;;;;;;;10.77;9.23;;;12.90;99.90;;;;;;5017413;28;20521;-63
2022/05/27 03:35:33;;;;;;;14.00;8.07;;;12.90;99.90;;;;;;5017296;28;20813;-64
2022/05/27 03:38:08;;;;;;;11.83;9.40;;;12.90;99.90;;;;;;5016598;28;20452;-65
2022/05/27 03:40:43;;;;;;;10.90;9.67;;;12.80;99.90;;;;;;5017597;28;20521;-64
2022/05/27 03:43:12;;;;;;;18.50;10.47;;;12.80;99.90;;;;;;5018127;28;20830;-65
2022/05/27 03:45:51;;;;;;;11.03;9.70;;;12.80;99.90;;;;;;5017958;28;20514;-65
2022/05/27 03:48:19;;;;;;;10.33;9.23;;;12.80;99.90;;;;;;5016811;28;20463;-65
2022/05/27 03:50:50;;;;;;;10.57;9.30;;;12.80;99.90;;;;;;5017409;28;20497;-64
2022/05/27 03:53:18;;;;;;;13.13;9.80;;;12.80;99.90;;;;;;5017545;28;20769;-63
2022/05/27 03:55:45;;;;;;;10.83;9.73;;;12.80;99.90;;;;;;5017820;28;20468;-64
2022/05/27 03:58:13;;;;;;;10.30;9.20;;;12.80;99.90;;;;;;5017157;28;20895;-62
2022/05/27 04:00:41;;;;;;;10.30;9.20;;;12.70;99.90;;;;;;5017546;28;20970;-65
2022/05/27 04:03:09;;;;;;;10.63;9.53;;;12.70;99.90;;;;;;5016563;28;20464;-64
2022/05/27 04:05:36;;;;;;;10.43;8.70;;;12.70;99.90;;;;;;5016802;28;20464;-62
2022/05/27 04:08:11;;;;;;;11.00;9.90;;;12.80;99.90;;;;;;5017098;28;20749;-63
2022/05/27 04:10:38;;;;;;;10.50;9.50;;;12.70;99.90;;;;;;5017984;28;20434;-63
2022/05/27 04:13:05;;;;;;;11.40;9.27;;;12.70;99.90;;;;;;5017045;28;20461;-63
2022/05/27 04:15:32;;;;;;;9.63;8.13;;;12.70;99.90;;;;;;5015403;28;20450;-64
2022/05/27 04:17:59;;;;;;;10.40;8.70;;;12.70;99.90;;;;;;5016699;28;20495;-63
2022/05/27 04:20:26;;;;;;;12.00;8.50;;;12.70;99.90;;;;;;5017484;28;20499;-63
2022/05/27 04:22:55;;;;;;;8.07;6.20;;;12.70;99.90;;;;;;5016929;28;20923;-65
2022/05/27 04:25:24;;;;;;;7.10;6.50;;;12.70;99.90;;;;;;5017604;28;20456;-64
2022/05/27 04:27:51;;;;;;;5.60;5.10;;;12.60;99.90;;;;;;5017119;28;20504;-64
2022/05/27 04:30:19;;;;;;;5.00;4.50;;;12.60;99.90;;;;;;5016853;28;20456;-65
2022/05/27 04:32:48;;;;;;;4.50;4.10;;;12.70;99.90;;;;;;5016957;28;20464;-64
2022/05/27 04:35:18;;;;;;;4.50;4.10;;;12.70;99.90;;;;;;5016399;28;20493;-64
2022/05/27 04:37:45;;;;;;;4.43;3.60;;;12.60;99.90;;;;;;5016980;28;20460;-63
2022/05/27 04:40:14;;;;;;;3.20;2.90;;;12.60;99.90;;;;;;5016298;28;20487;-64
2022/05/27 04:42:42;;;;;;;4.07;3.67;;;12.40;99.90;;;;;;5017030;28;20571;-65
2022/05/27 04:45:10;;;;;;;5.80;3.67;;;12.40;99.90;;;;;;5017125;28;20464;-64
2022/05/27 04:47:40;;;;;;;3.63;3.10;;;12.20;99.90;;;;;;5017002;28;20987;-65
2022/05/27 04:50:09;;;;;;;5.93;3.90;;;12.20;99.90;;;;;;5016176;28;20460;-65
2022/05/27 04:52:40;;;;;;;4.83;3.40;;;12.20;99.90;;;;;;5017327;28;20444;-65
2022/05/27 04:55:13;;;;;;;4.33;3.60;;;12.20;99.90;;;;;;5017573;28;20546;-66
2022/05/27 04:57:46;;;;;;;4.50;3.67;;;12.10;99.90;;;;;;5016817;28;20566;-66
2022/05/27 05:00:19;;;;;;;4.80;3.67;;;12.10;99.90;;;;;;5016104;28;20546;-66
2022/05/27 05:02:49;;;;;;;6.53;3.83;;;12.10;99.90;;;;;;5016957;28;20552;-66
2022/05/27 05:05:18;;;;;;;6.40;3.70;;;12.20;99.90;;;;;;5015811;28;20817;-66
2022/05/27 05:07:48;;;;;;;4.77;3.67;;;12.30;99.90;;;;;;5016588;28;20468;-66
2022/05/27 05:10:18;;;;;;;6.50;3.60;;;12.40;99.90;;;;;;5016360;28;20497;-66
2022/05/27 05:12:48;;;;;;;7.00;3.53;;;12.50;99.90;;;;;;5016611;28;20526;-66
2022/05/27 05:15:15;;;;;;;3.90;3.17;;;12.50;99.90;;;;;;5016326;28;20464;-66
2022/05/27 05:17:42;;;;;;;8.00;3.50;;;12.60;99.90;;;;;;5018071;28;20974;-66
2022/05/27 05:20:17;;;;;;;3.43;3.10;;;12.60;99.90;;;;;;5019836;28;20547;-66
2022/05/27 05:22:44;;;;;;;3.87;3.20;;;12.60;99.90;;;;;;5020034;28;20474;-66
2022/05/27 05:25:12;;;;;;;5.50;4.07;;;12.60;99.90;;;;;;5020323;28;20483;-67
2022/05/27 05:27:40;;;;;;;6.50;3.60;;;12.70;99.90;;;;;;5019650;28;20509;-66
2022/05/27 05:30:17;;;;;;;6.90;3.73;;;12.70;99.90;;;;;;5020311;28;20552;-66
2022/05/27 05:32:44;;;;;;;4.53;3.70;;;12.80;99.90;;;;;;5019369;28;20470;-66
2022/05/27 05:35:13;;;;;;;6.60;3.70;;;12.90;99.90;;;;;;5019590;28;20563;-66
2022/05/27 05:37:40;;;;;;;9.03;4.10;;;12.90;99.90;;;;;;5019672;28;20500;-66
2022/05/27 05:40:09;;;;;;;4.30;3.80;;;13.00;99.90;;;;;;5019894;28;20550;-66
2022/05/27 05:42:37;;;;;;;6.70;3.90;;;13.10;99.90;;;;;;5019450;28;20470;-71
2022/05/27 05:45:05;;;;;;;4.60;3.50;;;13.10;99.90;;;;;;5019899;28;20468;-70
2022/05/27 05:47:33;;;;;;;5.37;3.53;;;13.20;99.90;;;;;;5019268;28;20558;-70
2022/05/27 05:50:07;;;;;;;4.87;3.57;;;13.20;99.90;;;;;;5019610;28;20836;-70
2022/05/27 05:52:34;;;;;;;5.50;3.93;;;13.30;99.90;;;;;;5019047;28;20468;-68
2022/05/27 05:55:02;;;;;;;4.47;4.00;;;13.20;99.90;;;;;;5019728;28;20871;-68
2022/05/27 05:57:28;;;;;;;7.10;4.60;;;13.10;99.90;;;;;;5019147;28;20468;-68
2022/05/27 05:59:56;;;;;;;6.17;4.33;;;13.00;99.90;;;;;;5019339;28;20587;-69
2022/05/27 06:02:23;;;;;;;4.80;4.10;;;13.10;99.90;;;;;;5019336;28;20445;-70
2022/05/27 06:04:51;;;;;;;5.63;5.13;;;13.20;99.90;;;;;;5019288;28;20554;-70
2022/05/27 06:07:18;;;;;;;5.60;4.90;;;13.20;99.90;;;;;;5017932;28;20559;-71
2022/05/27 06:09:45;;;;;;;7.10;5.90;;;13.20;99.90;;;;;;5017231;28;20503;-71
2022/05/27 06:12:14;;;;;;;9.33;5.87;;;13.10;99.90;;;;;;5019132;28;20472;-71
2022/05/27 06:14:43;;;;;;;6.80;6.20;;;13.10;99.90;;;;;;5023705;28;20511;-72
2022/05/27 06:17:10;;;;;;;8.53;5.93;;;13.00;99.90;;;;;;5038302;28;20491;-71
2022/05/27 06:19:37;;;;;;;5.93;5.33;;;13.00;99.90;;;;;;5037376;28;20488;-69
2022/05/27 06:22:05;;;;;;;6.63;5.70;;;13.00;99.90;;;;;;5038181;28;20502;-70
2022/05/27 06:24:32;;;;;;;5.47;4.97;;;13.10;99.90;;;;;;5028428;28;20541;-68
2022/05/27 06:27:05;;;;;;;7.00;5.60;;;13.20;99.90;;;;;;5037070;28;20469;-67
2022/05/27 06:35:04;;;;;;;8.77;5.40;;;13.20;99.90;;;;;;5031709;28;20455;-70
2022/05/27 06:37:34;;;;;;;8.90;5.30;;;13.40;99.90;;;;;;5038619;28;20455;-71
2022/05/27 06:40:01;;;;;;;8.20;5.03;;;13.40;99.90;;;;;;5027350;28;20498;-72
2022/05/27 06:42:30;;;;;;;7.73;5.40;;;13.60;99.90;;;;;;5038494;28;20525;-71
2022/05/27 06:44:57;;;;;;;7.03;6.33;;;13.60;99.90;;;;;;5032735;28;20867;-71
2022/05/27 06:47:24;;;;;;;6.70;6.00;;;13.80;99.90;;;;;;5023297;28;20550;-71
2022/05/27 06:49:53;;;;;;;10.07;6.27;;;13.80;99.90;;;;;;5031887;28;20470;-71
2022/05/27 06:52:20;;;;;;;8.10;5.90;;;14.10;99.90;;;;;;5034340;28;20499;-71
2022/05/27 06:54:54;;;;;;;8.00;5.40;;;14.10;99.90;;;;;;5023675;28;20467;-70
2022/05/27 06:57:22;;;;;;;7.10;6.00;;;14.10;99.90;;;;;;5020508;28;20544;-70
2022/05/27 06:59:52;;;;;;;7.00;6.13;;;14.40;99.90;;;;;;5030465;28;20468;-70
2022/05/27 07:02:22;;;;;;;10.30;6.20;;;14.30;99.90;;;;;;5025734;28;20438;-70
2022/05/27 07:04:49;;;;;;;9.17;6.10;;;14.30;99.90;;;;;;5038082;28;20471;-70
2022/05/27 07:07:19;;;;;;;7.27;5.60;;;14.50;99.90;;;;;;5029528;28;20557;-68
2022/05/27 07:09:50;;;;;;;7.10;6.20;;;14.40;99.90;;;;;;5036692;28;20467;-69
2022/05/27 07:12:17;;;;;;;9.00;5.90;;;14.30;99.90;;;;;;5029121;28;20467;-71
2022/05/27 07:14:44;;;;;;;7.63;6.00;;;14.30;99.90;;;;;;5037826;28;20613;-72
2022/05/27 07:17:11;;;;;;;7.70;6.33;;;14.40;99.90;;;;;;5033668;28;20450;-71
2022/05/27 07:19:39;;;;;;;6.03;5.40;;;14.40;99.90;;;;;;5035995;28;20468;-71
2022/05/27 07:22:11;;;;;;;8.20;5.83;;;14.40;99.90;;;;;;5030496;28;20554;-70
2022/05/27 07:24:38;;;;;;;7.77;6.60;;;14.70;99.90;;;;;;5036731;28;20963;-70
2022/05/27 07:27:10;;;;;;;14.37;6.93;;;15.00;99.90;;;;;;5028863;28;20933;-70
2022/05/27 07:29:37;;;;;;;7.67;6.43;;;15.50;99.90;;;;;;5029032;28;20495;-70
2022/05/27 07:32:06;;;;;;;9.17;6.00;;;15.70;99.90;;;;;;5036189;28;20521;-69
2022/05/27 07:34:33;;;;;;;9.53;4.77;;;15.90;53.30;;;;;;5038435;28;20465;-70
2022/05/27 07:37:00;;;;;;;7.50;4.50;;;15.70;1.00;;;;;;5035926;28;20515;-70
2022/05/27 07:39:27;;;;;;;7.30;5.43;;;15.50;1.00;;;;;;5024101;28;20849;-70
2022/05/27 07:41:54;;;;;;;10.37;5.10;;;15.50;1.00;;;;;;5024617;28;20595;-70
2022/05/27 07:44:25;;;;;;;7.07;5.00;;;15.20;1.00;;;;;;5032352;28;20483;-70
2022/05/27 07:46:55;;;;;;;9.80;5.40;;;15.00;1.00;;;;;;5038103;28;20438;-69
2022/05/27 07:49:22;;;;;;;7.60;5.30;;;14.90;1.00;;;;;;5037210;28;20936;-69
2022/05/27 07:51:49;;;;;;;8.20;5.87;;;14.90;36.70;;;;;;5035049;28;20491;-71
2022/05/27 07:54:20;;;;;;;8.50;5.90;;;14.80;1.00;;;;;;5017016;28;20464;-69
2022/05/27 07:56:47;;;;;;;8.03;5.47;;;14.80;87.50;;;;;;5017146;28;20464;-68
2022/05/27 07:59:14;;;;;;;6.23;5.63;;;15.00;99.90;;;;;;5033857;28;20502;-68
2022/05/27 08:01:42;;;;;;;11.10;5.57;;;14.70;1.00;;;;;;5037020;28;20586;-69
2022/05/27 08:04:12;;;;;;;8.93;5.23;;;15.10;69.50;;;;;;5027676;28;20530;-68
2022/05/27 08:06:42;;;;;;;8.30;6.23;;;15.50;61.10;;;;;;5028874;28;20437;-67
2022/05/27 08:09:09;;;;;;;11.30;7.07;;;16.10;1.00;;;;;;5032341;28;20438;-67
2022/05/27 08:11:38;;;;;;;10.00;5.20;;;16.80;1.00;;;;;;5028455;28;20534;-68
2022/05/27 08:14:05;;;;;;;7.70;5.90;;;16.90;1.00;;;;;;5020516;28;20742;-66
2022/05/27 08:16:33;;;;;;;7.23;5.20;;;17.20;1.00;;;;;;5035514;28;20585;-66
2022/05/27 08:19:06;;;;;;;10.17;6.67;;;18.00;1.00;;;;;;5018225;28;20475;-66
2022/05/27 08:21:36;;;;;;;10.13;6.20;;;18.00;1.00;;;;;;5017096;28;20841;-66
2022/05/27 08:24:07;;;;;;;8.93;7.30;;;17.30;1.00;;;;;;5037302;28;20475;-70
2022/05/27 08:26:43;;;;;;;9.17;7.77;;;16.60;1.00;;;;;;5036903;28;20557;-67
2022/05/27 08:29:11;;;;;;;9.03;7.70;;;16.40;1.00;;;;;;5026943;28;20506;-68
2022/05/27 08:31:42;;;;;;;12.23;7.87;;;16.70;1.00;;;;;;5036709;28;20459;-67
2022/05/27 08:39:46;;;;;;;11.33;9.90;;;16.90;1.00;;;;;;5032562;28;20489;-66
2022/05/27 08:42:24;;;;;;;8.93;8.03;;;17.00;1.00;;;;;;5036502;28;20495;-66
2022/05/27 08:45:04;;;;;;;12.50;8.20;;;17.30;1.00;;;;;;5029683;28;20466;-67
2022/05/27 08:47:38;;;;;;;9.50;8.60;;;17.40;1.00;;;;;;5028375;28;20565;-66
2022/05/27 08:50:15;;;;;;;10.80;9.77;;;18.00;1.00;;;;;;5030005;28;20893;-65
2022/05/27 08:52:46;;;;;;;8.93;8.03;;;18.50;1.00;;;;;;5033224;28;20546;-66
2022/05/27 09:01:11;;;;;;;12.00;10.70;;;18.20;99.90;;;;;;5013907;28;20490;-66
2022/05/27 09:03:42;;;;;;;11.60;10.27;;;18.20;99.90;;;;;;5039640;28;20555;-65
2022/05/27 09:06:12;;;;;;;13.80;11.67;;;18.00;99.90;;;;;;5032865;28;20506;-64
2022/05/27 09:08:42;;;;;;;11.47;10.47;;;18.20;99.90;;;;;;5040299;28;20463;-66
2022/05/27 09:11:22;;;;;;;12.80;11.70;;;18.20;99.90;;;;;;5036386;28;20487;-66
2022/05/27 09:13:58;;;;;;;11.97;10.90;;;17.50;99.90;;;;;;5027723;28;20463;-65
2022/05/27 09:16:33;;;;;;;12.30;10.47;;;18.00;99.90;;;;;;5038328;28;20466;-65
2022/05/27 09:19:10;;;;;;;10.57;8.23;;;18.30;99.90;;;;;;5040203;28;20470;-65
2022/05/27 09:21:58;;;;;;;9.40;8.50;;;18.80;99.90;;;;;;5035801;28;20945;-65
2022/05/27 09:24:36;;;;;;;8.33;7.53;;;19.50;99.90;;;;;;5034738;28;20577;-65
2022/05/27 09:27:12;;;;;;;9.90;7.53;;;18.60;99.90;;;;;;5027126;28;20569;-65
2022/05/27 09:29:51;;;;;;;8.93;6.43;;;18.30;99.90;;;;;;5021392;28;20796;-64
2022/05/27 09:32:30;;;;;;;6.93;6.23;;;18.30;99.90;;;;;;5033468;28;20458;-64
2022/05/27 09:35:07;;;;;;;7.80;6.20;;;17.70;99.90;;;;;;5003926;28;20500;-64
2022/05/27 09:37:41;;;;;;;9.83;5.53;;;17.60;99.90;;;;;;5029814;28;20498;-65
2022/05/27 09:40:14;;;;;;;9.83;6.10;;;17.30;99.90;;;;;;5039757;28;20553;-64
2022/05/27 09:42:47;;;;;;;8.27;5.00;;;16.90;99.90;;;;;;5033714;28;20531;-64
2022/05/27 09:45:14;;;;;;;10.33;5.47;;;16.90;99.90;;;;;;5024395;28;20532;-64
2022/05/27 09:47:44;;;;;;;9.20;6.50;;;16.60;99.90;;;;;;5033609;28;20537;-63
2022/05/27 09:50:25;;;;;;;6.93;5.93;;;16.50;99.90;;;;;;5038733;28;20847;-64
2022/05/27 09:52:56;;;;;;;8.87;6.40;;;16.90;99.90;;;;;;5036400;28;20501;-64
2022/05/27 09:55:27;;;;;;;9.30;5.07;;;17.70;99.90;;;;;;5027167;28;20463;-65
2022/05/27 09:57:58;;;;;;;6.47;5.43;;;18.70;99.90;;;;;;5029416;28;20567;-64
2022/05/27 10:00:37;;;;;;;9.80;5.80;;;19.50;99.90;;;;;;5028443;28;20498;-64
2022/05/27 10:03:27;;;;;;;6.57;4.80;;;20.70;99.90;;;;;;5038281;28;20502;-65
2022/05/27 10:05:57;;;;;;;7.70;5.20;;;20.50;99.90;;;;;;5027153;28;20949;-63
2022/05/27 10:08:32;;;;;;;7.67;5.83;;;20.40;99.90;;;;;;5030052;28;20762;-63
2022/05/27 10:11:11;;;;;;;12.27;5.60;;;19.70;99.90;;;;;;5036237;28;20550;-64
2022/05/27 10:13:41;;;;;;;7.50;4.40;;;19.40;99.90;;;;;;5039081;28;20473;-64
2022/05/27 10:16:11;;;;;;;11.33;5.43;;;19.70;99.90;;;;;;5038555;28;20449;-64
2022/05/27 10:18:38;;;;;;;7.37;4.90;;;20.50;99.90;;;;;;5033740;28;20811;-63
2022/05/27 10:21:13;;;;;;;9.50;6.50;;;21.00;99.90;;;;;;5018341;28;20610;-63
2022/05/27 10:23:45;;;;;;;8.20;5.53;;;19.30;99.90;;;;;;5000402;28;20456;-63
2022/05/27 10:26:24;;;;;;;9.43;5.87;;;18.60;99.90;;;;;;5038313;28;20793;-63
2022/05/27 10:29:01;;;;;;;10.77;4.90;;;18.50;99.90;;;;;;5037685;28;20472;-63
2022/05/27 10:31:29;;;;;;;9.67;5.17;;;18.40;99.90;;;;;;5023359;28;20486;-63
2022/05/27 10:34:04;;;;;;;7.33;5.23;;;18.20;99.90;;;;;;5035850;28;20460;-65
2022/05/27 10:36:56;;;;;;;14.50;6.00;;;18.10;99.90;;;;;;5023609;28;20738;-63
2022/05/27 10:39:29;;;;;;;12.00;5.27;;;18.60;99.90;;;;;;5036947;28;20462;-63
2022/05/27 10:42:33;;;;;;;8.70;5.30;;;18.40;99.90;;;;;;5028751;28;20990;-63
2022/05/27 10:45:19;;;;;;;8.50;4.87;;;18.00;99.90;;;;;;5030486;28;20551;-63
2022/05/27 10:48:14;;;;;;;8.70;5.20;;;18.10;99.90;;;;;;5034826;28;20452;-64
2022/05/27 10:50:48;;;;;;;11.80;5.20;;;18.00;99.90;;;;;;5035819;28;20452;-65
2022/05/27 10:53:45;;;;;;;9.70;5.43;;;18.40;99.90;;;;;;5027535;28;20555;-65
2022/05/27 10:56:27;;;;;;;9.17;4.87;;;19.00;99.90;;;;;;5023455;28;20938;-65
2022/05/27 11:02:20;;;;;;;6.50;4.50;;;19.90;99.90;;;;;;5037398;28;20772;-64
2022/05/27 11:05:11;;;;;;;5.53;4.30;;;19.70;99.90;;;;;;5037825;28;20506;-64
2022/05/27 11:07:51;;;;;;;9.40;4.83;;;20.30;99.90;;;;;;5015711;28;20504;-63
2022/05/27 11:10:39;;;;;;;8.37;5.03;;;20.70;99.90;;;;;;5003189;28;20964;-64
2022/05/27 11:16:28;;;;;;;6.27;4.63;;;21.00;99.90;;;;;;5033179;28;20447;-64
2022/05/27 11:19:12;;;;;;;7.70;5.00;;;21.80;99.90;;;;;;5029618;28;20462;-63
2022/05/27 11:22:00;;;;;;;7.80;4.50;;;21.60;99.90;;;;;;5024802;28;20527;-64
2022/05/27 11:24:57;;;;;;;9.87;4.83;;;20.90;99.90;;;;;;5034694;28;20462;-63
2022/05/27 11:27:38;;;;;;;7.33;5.30;;;21.40;99.90;;;;;;5035506;28;20581;-63
2022/05/27 11:30:19;;;;;;;8.00;5.87;;;20.40;99.90;;;;;;5037414;28;20549;-62
2022/05/27 11:33:17;;;;;;;10.30;5.50;;;19.10;99.90;;;;;;5026879;28;20817;-63
2022/05/27 11:35:56;;;;;;;14.07;5.63;;;19.40;99.90;;;;;;5033107;28;20965;-63
2022/05/27 11:38:36;;;;;;;7.93;4.97;;;20.10;99.90;;;;;;5027524;28;20545;-62
2022/05/27 11:41:19;;;;;;;9.20;4.80;;;19.80;99.90;;;;;;5036503;28;20570;-62
2022/05/27 11:43:55;;;;;;;15.27;5.43;;;19.50;99.90;;;;;;5036524;28;20525;-64
2022/05/27 11:46:38;;;;;;;6.40;4.73;;;20.70;99.90;;;;;;5035531;28;20876;-64
2022/05/27 11:49:24;;;;;;;11.80;5.13;;;20.50;99.90;;;;;;5035043;28;20490;-63
2022/05/27 11:52:09;;;;;;;5.50;4.80;;;20.90;99.90;;;;;;5026360;28;20550;-63
2022/05/27 11:55:04;;;;;;;7.80;5.03;;;21.60;99.90;;;;;;5018018;28;20475;-63
2022/05/27 11:57:48;;;;;;;7.43;4.80;;;22.20;99.90;;;;;;5018897;28;20468;-61
2022/05/27 12:00:18;;;;;;;8.60;4.90;;;21.40;99.90;;;;;;5015405;28;20566;-64
2022/05/27 12:02:54;;;;;;;7.23;4.60;;;21.50;99.90;;;;;;5020960;28;20495;-63
2022/05/27 12:05:26;;;;;;;8.20;4.70;;;22.30;99.90;;;;;;5026783;28;20554;-62
2022/05/27 12:07:59;;;;;;;6.17;4.70;;;22.80;99.90;;;;;;5030173;28;20475;-62
2022/05/27 12:10:32;;;;;;;6.67;4.20;;;22.60;99.90;;;;;;5029698;28;20445;-63
2022/05/27 12:13:07;;;;;;;8.67;4.80;;;22.30;99.90;;;;;;5024496;28;20464;-63
2022/05/27 12:15:40;;;;;;;7.10;5.10;;;20.20;99.90;;;;;;5031653;28;20553;-63
2022/05/27 12:18:14;;;;;;;9.03;4.73;;;19.10;99.90;;;;;;5032167;28;20546;-62
2022/05/27 12:20:41;;;;;;;10.50;5.00;;;19.90;99.90;;;;;;5032905;28;20467;-63
2022/05/27 12:23:16;;;;;;;8.37;4.90;;;20.70;99.90;;;;;;5026716;28;20531;-62
2022/05/27 12:25:48;;;;;;;7.90;4.57;;;20.90;99.90;;;;;;5033638;28;20467;-62
2022/05/27 12:28:21;;;;;;;4.80;4.00;;;21.70;99.90;;;;;;5039100;28;20555;-63
2022/05/27 12:30:49;;;;;;;9.27;4.83;;;22.50;99.90;;;;;;5027002;28;20897;-63
2022/05/27 12:33:20;;;;;;;6.87;4.57;;;22.20;99.90;;;;;;5034264;28;20881;-63
2022/05/27 12:35:57;;;;;;;9.40;4.57;;;21.30;99.90;;;;;;5039137;28;20893;-63
2022/05/27 12:38:27;;;;;;;7.80;4.77;;;19.60;99.90;;;;;;5040360;28;20469;-63
2022/05/27 12:40:57;;;;;;;7.40;4.20;;;19.90;99.90;;;;;;5023720;28;20463;-63
2022/05/27 12:43:28;;;;;;;10.80;4.70;;;21.20;99.90;;;;;;5021188;28;20828;-64
2022/05/27 12:46:29;;;;;;;11.00;4.23;;;21.90;99.90;;;;;;5038388;28;20487;-63
2022/05/27 12:49:23;;;;;;;7.33;4.20;;;21.40;99.90;;;;;;5033056;28;20932;-63
2022/05/27 12:51:52;;;;;;;9.10;4.07;;;20.00;99.90;;;;;;5030741;28;20836;-63
2022/05/27 12:54:53;;;;;;;8.97;4.70;;;20.70;99.90;;;;;;5036203;28;20470;-64
2022/05/27 13:00:59;;;;;;;10.20;5.07;;;19.50;99.90;;;;;;5026322;28;20451;-63
2022/05/27 13:03:49;;;;;;;7.93;4.40;;;20.10;99.90;;;;;;5007196;28;20566;-64
2022/05/27 13:06:44;;;;;;;5.03;4.20;;;21.00;99.90;;;;;;5028447;28;20489;-63
2022/05/27 13:09:36;;;;;;;10.13;4.10;;;22.10;99.90;;;;;;5039436;28;20517;-64
2022/05/27 13:12:04;;;;;;;5.30;4.27;;;22.70;99.90;;;;;;5037288;28;20474;-63
2022/05/27 13:14:47;;;;;;;8.50;3.67;;;22.60;99.90;;;;;;5037324;28;20463;-63
2022/05/27 13:17:31;;;;;;;8.27;4.30;;;22.00;99.90;;;;;;5038017;28;20498;-65
2022/05/27 13:20:07;;;;;;;10.63;4.87;;;21.40;99.90;;;;;;5039422;28;20553;-62
2022/05/27 13:22:50;;;;;;;8.33;4.00;;;20.50;99.90;;;;;;5022374;28;20502;-63
2022/05/27 13:25:31;;;;;;;5.33;3.43;;;21.20;99.90;;;;;;5034243;28;20810;-63
2022/05/27 13:28:03;;;;;;;5.40;3.93;;;21.90;99.90;;;;;;5024811;28;20522;-64
2022/05/27 13:30:56;;;;;;;4.60;3.40;;;21.80;99.90;;;;;;5039689;28;20892;-63
2022/05/27 13:33:28;;;;;;;7.30;4.10;;;21.20;99.90;;;;;;5039661;28;20757;-63
2022/05/27 13:35:56;;;;;;;6.50;3.90;;;21.00;99.90;;;;;;5035290;28;20511;-63
2022/05/27 13:38:29;;;;;;;8.17;4.17;;;20.00;99.90;;;;;;5020680;28;20550;-63
2022/05/27 13:40:57;;;;;;;6.97;3.90;;;19.40;99.90;;;;;;5029574;28;20672;-62
2022/05/27 13:43:39;;;;;;;8.53;3.57;;;19.00;99.90;;;;;;5029705;28;20498;-62
2022/05/27 13:46:13;;;;;;;5.80;3.80;;;19.70;99.90;;;;;;5037004;28;20789;-63
2022/05/27 13:48:47;;;;;;;8.10;3.77;;;20.60;99.90;;;;;;5020001;28;20557;-63